Time;durP1;ratioP1;P1;durP2;ratioP2;P2;SDS_P1;SDS_P2;PMS_P1;PMS_P2;Temp;Humidity;BMP_temperature;BMP_pressure;BME280_temperature;BME280_humidity;BME280_pressure;Samples;Min_cycle;Max_cycle;Signal;HPM_P1;HPM_P2
2021/08/17 00:01:28;;;;;;;3.95;1.58;;;22.00;70.30;;;;;;5092766;28;20079;-51
2021/08/17 00:03:53;;;;;;;3.47;1.60;;;22.00;70.30;;;;;;5093152;28;20055;-53
2021/08/17 00:06:19;;;;;;;4.55;1.63;;;22.10;70.40;;;;;;5092696;28;20119;-53
2021/08/17 00:08:45;;;;;;;2.80;1.40;;;22.00;70.30;;;;;;5093233;28;20135;-52
2021/08/17 00:11:11;;;;;;;3.35;1.70;;;22.00;70.30;;;;;;5093081;28;20099;-53
2021/08/17 00:13:37;;;;;;;2.33;1.35;;;22.00;70.30;;;;;;5092689;28;20040;-53
2021/08/17 00:16:03;;;;;;;4.18;1.77;;;22.00;70.40;;;;;;5092874;28;20055;-51
2021/08/17 00:18:29;;;;;;;3.58;1.52;;;22.00;70.30;;;;;;5092482;28;20624;-51
2021/08/17 00:20:54;;;;;;;5.25;1.88;;;22.00;70.30;;;;;;5092605;28;20127;-50
2021/08/17 00:23:20;;;;;;;4.13;1.50;;;22.00;70.30;;;;;;5092534;28;20055;-52
2021/08/17 00:25:46;;;;;;;3.85;1.70;;;21.90;70.30;;;;;;5092569;28;20073;-50
2021/08/17 00:28:11;;;;;;;2.55;1.20;;;22.00;70.40;;;;;;5092550;28;20500;-51
2021/08/17 00:30:38;;;;;;;4.07;1.75;;;22.00;70.30;;;;;;5092267;28;20044;-52
2021/08/17 00:33:04;;;;;;;2.13;1.60;;;22.10;71.10;;;;;;5092538;28;20162;-52
2021/08/17 00:35:30;;;;;;;2.22;1.20;;;22.00;70.40;;;;;;5091998;28;20072;-52
2021/08/17 00:37:55;;;;;;;3.22;1.63;;;22.00;70.30;;;;;;5092184;28;20052;-47
2021/08/17 00:40:21;;;;;;;3.63;1.35;;;22.00;70.30;;;;;;5092467;28;20443;-51
2021/08/17 00:42:48;;;;;;;3.47;1.63;;;22.00;70.40;;;;;;5091943;28;20063;-51
2021/08/17 00:45:20;;;;;;;2.75;1.42;;;22.00;70.40;;;;;;5091522;28;20052;-49
2021/08/17 00:47:46;;;;;;;2.83;1.27;;;22.00;70.40;;;;;;5091997;28;20051;-51
2021/08/17 00:50:12;;;;;;;2.30;1.50;;;22.00;70.40;;;;;;5092395;28;20416;-52
2021/08/17 00:52:39;;;;;;;3.00;1.55;;;22.00;70.40;;;;;;5092070;28;20455;-51
2021/08/17 00:55:05;;;;;;;4.18;1.65;;;22.00;70.40;;;;;;5091452;28;20052;-51
2021/08/17 00:57:31;;;;;;;2.53;1.25;;;22.00;70.40;;;;;;5092325;28;20048;-51
2021/08/17 00:59:57;;;;;;;2.78;1.33;;;22.00;70.40;;;;;;5092201;28;20044;-51
2021/08/17 01:02:23;;;;;;;1.77;1.10;;;22.00;70.40;;;;;;5091692;28;20048;-46
2021/08/17 01:04:49;;;;;;;1.85;1.13;;;22.00;70.40;;;;;;5091803;28;20052;-52
2021/08/17 01:07:15;;;;;;;2.00;1.27;;;22.00;70.60;;;;;;5091353;28;20114;-47
2021/08/17 01:09:41;;;;;;;3.40;1.58;;;22.00;70.40;;;;;;5091883;28;20048;-50
2021/08/17 01:12:08;;;;;;;3.53;1.48;;;22.00;70.40;;;;;;5091742;28;20044;-51
2021/08/17 01:14:34;;;;;;;3.15;1.48;;;22.00;70.40;;;;;;5091915;28;20377;-51
2021/08/17 01:17:01;;;;;;;2.40;1.25;;;22.00;70.40;;;;;;5091035;28;20044;-49
2021/08/17 01:19:27;;;;;;;2.42;1.38;;;22.00;70.40;;;;;;5091620;28;20063;-52
2021/08/17 01:21:54;;;;;;;2.50;1.23;;;22.00;70.40;;;;;;5091769;28;20075;-52
2021/08/17 01:24:20;;;;;;;2.60;1.33;;;22.00;70.50;;;;;;5091901;28;20085;-52
2021/08/17 01:26:46;;;;;;;1.85;1.25;;;22.00;70.50;;;;;;5091707;28;20131;-53
2021/08/17 01:29:15;;;;;;;2.33;1.25;;;22.00;70.50;;;;;;5091623;28;20097;-52
2021/08/17 01:31:42;;;;;;;3.08;1.60;;;21.90;70.40;;;;;;5071462;28;20502;-52
2021/08/17 01:34:07;;;;;;;2.70;1.60;;;21.90;70.40;;;;;;5071101;28;20048;-52
2021/08/17 01:36:33;;;;;;;2.83;1.35;;;22.00;70.50;;;;;;5071797;28;20542;-52
2021/08/17 01:39:00;;;;;;;2.78;1.73;;;22.00;70.50;;;;;;5087491;28;20066;-53
2021/08/17 01:41:26;;;;;;;2.10;1.20;;;22.00;70.50;;;;;;5091830;28;20040;-53
2021/08/17 01:43:52;;;;;;;3.47;1.45;;;22.00;70.50;;;;;;5091575;28;20058;-52
2021/08/17 01:46:18;;;;;;;2.63;1.35;;;22.00;70.50;;;;;;5092118;28;20068;-50
2021/08/17 01:48:44;;;;;;;2.17;1.23;;;22.00;70.50;;;;;;5090942;28;20051;-53
2021/08/17 01:51:11;;;;;;;2.08;1.17;;;22.00;70.50;;;;;;5091956;28;20399;-53
2021/08/17 01:53:38;;;;;;;2.83;1.20;;;22.00;70.50;;;;;;5091849;28;20127;-53
2021/08/17 01:56:12;;;;;;;3.15;1.23;;;21.90;70.50;;;;;;5091691;28;20051;-51
2021/08/17 01:58:38;;;;;;;2.05;1.10;;;21.90;70.50;;;;;;5091328;28;20572;-51
2021/08/17 02:01:06;;;;;;;2.65;1.40;;;21.90;70.50;;;;;;5091635;28;20138;-52
2021/08/17 02:03:32;;;;;;;2.40;1.35;;;22.00;70.60;;;;;;5091395;28;20044;-52
2021/08/17 02:05:58;;;;;;;2.55;1.27;;;21.90;71.20;;;;;;5091054;28;20127;-50
2021/08/17 02:08:24;;;;;;;1.90;1.20;;;21.90;70.60;;;;;;5094896;28;20076;-52
2021/08/17 02:10:50;;;;;;;2.60;1.33;;;21.90;70.50;;;;;;5094897;28;20070;-53
2021/08/17 02:13:17;;;;;;;2.45;1.30;;;21.90;70.60;;;;;;5094916;28;20051;-51
2021/08/17 02:15:44;;;;;;;2.40;1.33;;;21.90;70.60;;;;;;5095273;28;20074;-52
2021/08/17 02:18:11;;;;;;;4.30;1.40;;;21.90;70.60;;;;;;5094708;28;20093;-51
2021/08/17 02:20:36;;;;;;;3.55;1.40;;;21.90;70.60;;;;;;5094189;28;20461;-52
2021/08/17 02:23:02;;;;;;;3.28;1.42;;;21.90;70.60;;;;;;5095193;28;20050;-51
2021/08/17 02:25:28;;;;;;;1.92;1.17;;;21.90;70.60;;;;;;5094998;28;20080;-50
2021/08/17 02:27:54;;;;;;;2.20;1.25;;;21.90;70.60;;;;;;5095039;28;20127;-52
2021/08/17 02:30:19;;;;;;;2.33;1.17;;;21.90;70.60;;;;;;5095193;28;20076;-51
2021/08/17 02:32:45;;;;;;;2.47;1.17;;;21.90;70.60;;;;;;5094187;28;20411;-48
2021/08/17 02:35:11;;;;;;;2.70;1.42;;;21.90;70.60;;;;;;5094418;28;20056;-50
2021/08/17 02:37:37;;;;;;;2.88;1.35;;;21.90;70.70;;;;;;5094009;28;20047;-51
2021/08/17 02:40:05;;;;;;;2.95;1.23;;;21.90;70.60;;;;;;5094553;28;20162;-52
2021/08/17 02:42:32;;;;;;;2.53;1.17;;;21.90;70.60;;;;;;5093946;28;20060;-50
2021/08/17 02:44:59;;;;;;;2.90;1.10;;;21.90;70.60;;;;;;5094351;28;20044;-52
2021/08/17 02:47:26;;;;;;;2.72;1.10;;;21.90;70.70;;;;;;5094563;28;20071;-52
2021/08/17 02:49:52;;;;;;;1.52;1.17;;;21.90;70.60;;;;;;5094367;28;20052;-52
2021/08/17 02:52:18;;;;;;;4.55;1.50;;;21.90;70.70;;;;;;5093623;28;20071;-53
2021/08/17 02:54:44;;;;;;;2.70;1.20;;;21.90;70.70;;;;;;5094429;28;20048;-52
2021/08/17 02:57:10;;;;;;;1.73;1.23;;;21.90;70.70;;;;;;5094399;28;20051;-49
2021/08/17 02:59:36;;;;;;;3.60;1.40;;;21.90;70.70;;;;;;5094538;28;20101;-51
2021/08/17 03:02:02;;;;;;;2.70;1.20;;;21.90;70.70;;;;;;5094143;28;20051;-51
2021/08/17 03:04:28;;;;;;;3.13;1.20;;;21.90;70.70;;;;;;5094089;28;20101;-52
2021/08/17 03:06:55;;;;;;;3.05;1.35;;;21.90;70.70;;;;;;5093975;28;20044;-50
2021/08/17 03:09:21;;;;;;;2.22;1.20;;;21.90;70.70;;;;;;5093603;28;20069;-51
2021/08/17 03:11:47;;;;;;;3.28;1.70;;;21.90;70.70;;;;;;5093564;28;20476;-53
2021/08/17 03:14:13;;;;;;;2.33;1.20;;;21.80;70.80;;;;;;5093895;28;20067;-52
2021/08/17 03:16:39;;;;;;;2.55;1.25;;;21.90;70.70;;;;;;5093697;28;20175;-52
2021/08/17 03:19:06;;;;;;;2.35;1.15;;;21.90;70.70;;;;;;5093090;28;20460;-50
2021/08/17 03:21:32;;;;;;;2.40;1.15;;;21.90;70.70;;;;;;5093404;28;20048;-53
2021/08/17 03:23:58;;;;;;;1.45;1.00;;;21.80;70.60;;;;;;5091868;28;20047;-51
2021/08/17 03:26:24;;;;;;;2.38;1.10;;;21.90;70.70;;;;;;5093579;28;20048;-50
2021/08/17 03:28:49;;;;;;;3.25;1.10;;;21.90;70.70;;;;;;5093419;28;20492;-52
2021/08/17 03:31:15;;;;;;;1.60;1.08;;;21.80;70.60;;;;;;5092986;28;20077;-50
2021/08/17 03:33:45;;;;;;;2.65;1.08;;;21.80;70.70;;;;;;5093110;28;20503;-49
2021/08/17 03:36:11;;;;;;;3.47;1.40;;;21.90;70.70;;;;;;5093448;28;20433;-51
2021/08/17 03:38:37;;;;;;;2.63;1.17;;;21.80;70.60;;;;;;5093255;28;20079;-48
2021/08/17 03:41:03;;;;;;;1.23;1.10;;;21.90;70.70;;;;;;5092975;28;20443;-52
2021/08/17 03:43:30;;;;;;;4.70;1.23;;;21.80;70.70;;;;;;5092343;28;20060;-50
2021/08/17 03:45:56;;;;;;;1.88;0.95;;;21.80;70.70;;;;;;5093166;28;20047;-45
2021/08/17 03:48:22;;;;;;;1.15;1.02;;;21.80;70.60;;;;;;5093078;28;20054;-46
2021/08/17 03:50:48;;;;;;;1.73;0.95;;;21.80;70.70;;;;;;5092801;28;20051;-49
2021/08/17 03:53:14;;;;;;;2.78;1.40;;;21.80;70.70;;;;;;5092772;28;20554;-52
2021/08/17 03:55:40;;;;;;;2.55;1.10;;;21.80;70.70;;;;;;5092504;28;20044;-52
2021/08/17 03:58:06;;;;;;;3.55;1.42;;;21.80;70.70;;;;;;5092907;28;20055;-53
2021/08/17 04:00:33;;;;;;;1.85;1.02;;;21.80;70.70;;;;;;5093068;28;20111;-49
2021/08/17 04:02:59;;;;;;;3.63;1.52;;;21.80;70.70;;;;;;5092604;28;20048;-51
2021/08/17 04:05:26;;;;;;;2.47;1.25;;;21.80;70.70;;;;;;5072394;28;20045;-50
2021/08/17 04:07:52;;;;;;;3.58;1.40;;;21.80;70.70;;;;;;5072636;28;20052;-52
2021/08/17 04:10:18;;;;;;;3.10;1.20;;;21.80;70.70;;;;;;5071262;28;20055;-52
2021/08/17 04:12:44;;;;;;;2.28;1.58;;;21.80;70.70;;;;;;5072074;28;20052;-50
2021/08/17 04:15:11;;;;;;;1.30;1.00;;;21.80;70.80;;;;;;5086987;28;20044;-53
2021/08/17 04:17:37;;;;;;;2.83;1.27;;;21.80;70.70;;;;;;5092957;28;20055;-53
2021/08/17 04:20:08;;;;;;;2.78;1.23;;;21.80;70.80;;;;;;5092686;28;20044;-52
2021/08/17 04:22:34;;;;;;;1.45;1.00;;;21.80;70.80;;;;;;5092657;28;20047;-52
2021/08/17 04:25:00;;;;;;;2.08;1.40;;;21.80;70.80;;;;;;5092044;28;20089;-50
2021/08/17 04:27:27;;;;;;;1.77;0.98;;;21.80;70.80;;;;;;5092046;28;20043;-53
2021/08/17 04:29:53;;;;;;;1.40;0.93;;;21.80;70.80;;;;;;5091883;28;20062;-47
2021/08/17 04:32:18;;;;;;;1.85;1.00;;;21.80;70.70;;;;;;5092691;28;20050;-48
2021/08/17 04:34:44;;;;;;;1.75;0.98;;;21.70;70.70;;;;;;5092251;28;20048;-45
2021/08/17 04:37:10;;;;;;;3.92;1.65;;;21.70;70.70;;;;;;5092070;28;20055;-48
2021/08/17 04:39:36;;;;;;;2.78;1.02;;;21.80;70.80;;;;;;5092252;28;20101;-52
2021/08/17 04:42:02;;;;;;;2.70;1.23;;;21.70;70.70;;;;;;5092200;28;20059;-52
2021/08/17 04:44:28;;;;;;;2.78;1.20;;;21.70;70.70;;;;;;5092732;28;20412;-46
2021/08/17 04:46:54;;;;;;;2.08;1.10;;;21.70;70.70;;;;;;5092017;28;20049;-47
2021/08/17 04:49:20;;;;;;;2.67;1.23;;;21.80;70.80;;;;;;5092260;28;20048;-47
2021/08/17 04:51:46;;;;;;;3.10;1.20;;;21.70;70.80;;;;;;5092354;28;20108;-50
2021/08/17 04:54:11;;;;;;;1.88;1.10;;;21.70;70.70;;;;;;5092088;28;20048;-49
2021/08/17 04:56:37;;;;;;;2.72;0.93;;;21.70;70.80;;;;;;5092066;28;20040;-47
2021/08/17 04:59:03;;;;;;;2.10;1.00;;;21.70;70.70;;;;;;5091785;28;20051;-50
2021/08/17 05:01:30;;;;;;;1.92;1.10;;;21.80;70.80;;;;;;5092099;28;20557;-49
2021/08/17 05:03:57;;;;;;;1.35;0.95;;;21.80;70.80;;;;;;5092476;28;20185;-46
2021/08/17 05:06:22;;;;;;;3.15;1.30;;;21.70;70.70;;;;;;5091850;28;20047;-52
2021/08/17 05:08:48;;;;;;;2.13;1.30;;;21.80;70.90;;;;;;5091177;28;20052;-49
2021/08/17 05:11:14;;;;;;;2.35;1.17;;;21.70;70.80;;;;;;5092079;28;20059;-49
2021/08/17 05:13:40;;;;;;;2.30;1.00;;;21.70;70.80;;;;;;5091578;28;20530;-48
2021/08/17 05:16:06;;;;;;;1.45;0.90;;;21.70;70.70;;;;;;5091837;28;20124;-49
2021/08/17 05:18:34;;;;;;;1.33;1.00;;;21.80;70.80;;;;;;5091613;28;20051;-49
2021/08/17 05:21:01;;;;;;;1.75;1.10;;;21.70;70.80;;;;;;5091894;28;20049;-47
2021/08/17 05:23:27;;;;;;;1.67;0.90;;;21.70;70.80;;;;;;5091937;28;20079;-43
2021/08/17 05:25:54;;;;;;;2.08;1.17;;;21.80;70.80;;;;;;5092188;28;20047;-48
2021/08/17 05:28:20;;;;;;;1.42;0.70;;;21.70;70.80;;;;;;5091981;28;20408;-50
2021/08/17 05:30:46;;;;;;;2.00;1.20;;;21.70;70.80;;;;;;5091611;28;20044;-44
2021/08/17 05:33:12;;;;;;;1.67;0.98;;;21.70;70.80;;;;;;5091857;28;20484;-49
2021/08/17 05:35:39;;;;;;;2.47;1.30;;;21.70;70.80;;;;;;5091676;28;20109;-49
2021/08/17 05:38:05;;;;;;;2.00;1.05;;;21.70;71.40;;;;;;5091966;28;20411;-45
2021/08/17 05:40:30;;;;;;;1.13;0.85;;;21.80;70.90;;;;;;5092222;28;20044;-47
2021/08/17 05:42:56;;;;;;;2.10;1.20;;;21.70;70.80;;;;;;5095455;28;20079;-43
2021/08/17 05:45:22;;;;;;;1.52;0.90;;;21.70;70.80;;;;;;5095507;28;20040;-46
2021/08/17 05:47:49;;;;;;;1.65;0.90;;;21.70;70.80;;;;;;5095659;28;20106;-45
2021/08/17 05:50:17;;;;;;;1.58;0.88;;;21.70;70.80;;;;;;5095152;28;20468;-46
2021/08/17 05:52:43;;;;;;;2.00;0.98;;;21.70;70.80;;;;;;5094649;28;20051;-50
2021/08/17 05:55:11;;;;;;;1.98;1.10;;;21.70;70.80;;;;;;5095253;28;20058;-45
2021/08/17 05:57:37;;;;;;;1.60;0.90;;;21.70;70.80;;;;;;5095144;28;20043;-47
2021/08/17 06:00:12;;;;;;;1.83;1.02;;;21.70;70.80;;;;;;5094995;28;20040;-43
2021/08/17 06:02:40;;;;;;;2.20;1.23;;;21.70;70.80;;;;;;5074393;28;20052;-50
2021/08/17 06:05:07;;;;;;;2.10;1.15;;;21.70;70.80;;;;;;5074907;28;20381;-45
2021/08/17 06:07:32;;;;;;;2.58;0.88;;;21.70;70.80;;;;;;5074849;28;20044;-44
2021/08/17 06:09:58;;;;;;;2.88;1.40;;;21.70;70.80;;;;;;5075115;28;20097;-45
2021/08/17 06:12:24;;;;;;;2.63;1.23;;;21.70;70.80;;;;;;5089418;28;20130;-46
2021/08/17 06:14:49;;;;;;;1.40;1.10;;;21.70;70.80;;;;;;5095031;28;20044;-48
2021/08/17 06:17:15;;;;;;;2.70;1.13;;;21.70;70.80;;;;;;5094394;28;20044;-44
2021/08/17 06:19:41;;;;;;;2.15;1.10;;;21.70;70.80;;;;;;5095048;28;20040;-50
2021/08/17 06:22:07;;;;;;;2.17;1.17;;;21.70;70.80;;;;;;5094557;28;20400;-49
2021/08/17 06:24:33;;;;;;;1.55;1.10;;;21.70;71.50;;;;;;5094760;28;20040;-48
2021/08/17 06:26:58;;;;;;;1.95;1.25;;;21.70;71.50;;;;;;5094702;28;20044;-49
2021/08/17 06:29:24;;;;;;;1.50;1.20;;;21.70;70.80;;;;;;5095026;28;20059;-50
2021/08/17 06:31:50;;;;;;;1.70;1.13;;;21.70;70.80;;;;;;5094784;28;20055;-49
2021/08/17 06:34:16;;;;;;;3.00;1.30;;;21.70;70.80;;;;;;5093867;28;20072;-49
2021/08/17 06:36:42;;;;;;;2.95;1.33;;;21.70;70.80;;;;;;5094397;28;20433;-48
2021/08/17 06:39:08;;;;;;;2.17;1.23;;;21.70;70.80;;;;;;5094777;28;20048;-51
2021/08/17 06:41:35;;;;;;;2.45;1.45;;;21.70;70.80;;;;;;5094408;28;20048;-48
2021/08/17 06:44:01;;;;;;;1.73;1.20;;;21.70;70.80;;;;;;5093484;28;20453;-44
2021/08/17 06:46:27;;;;;;;2.05;1.20;;;21.70;70.80;;;;;;5094699;28;20040;-48
2021/08/17 06:48:54;;;;;;;2.20;1.30;;;21.70;70.80;;;;;;5093860;28;20055;-50
2021/08/17 06:51:20;;;;;;;1.58;1.23;;;21.70;70.80;;;;;;5093834;28;20071;-44
2021/08/17 06:53:47;;;;;;;3.03;1.25;;;21.70;70.80;;;;;;5093154;28;20082;-50
2021/08/17 06:56:13;;;;;;;2.63;1.02;;;21.70;70.80;;;;;;5094934;28;20121;-49
2021/08/17 06:58:39;;;;;;;2.72;1.30;;;21.70;70.80;;;;;;5094277;28;20472;-48
2021/08/17 07:01:05;;;;;;;2.38;1.40;;;21.70;70.80;;;;;;5094117;28;20063;-45
2021/08/17 07:03:31;;;;;;;1.95;1.05;;;21.70;70.80;;;;;;5094107;28;20103;-49
2021/08/17 07:05:57;;;;;;;3.40;1.20;;;21.70;70.80;;;;;;5093628;28;20119;-52
2021/08/17 07:08:23;;;;;;;2.40;1.23;;;21.70;70.80;;;;;;5093742;28;20403;-48
2021/08/17 07:10:49;;;;;;;1.83;1.20;;;21.70;70.80;;;;;;5093629;28;20044;-47
2021/08/17 07:13:15;;;;;;;1.73;1.20;;;21.70;70.80;;;;;;5093624;28;20040;-46
2021/08/17 07:15:41;;;;;;;6.13;2.65;;;21.70;70.80;;;;;;5093422;28;20138;-48
2021/08/17 07:18:08;;;;;;;4.70;2.25;;;21.60;69.70;;;;;;5093529;28;20062;-49
2021/08/17 07:20:34;;;;;;;5.20;2.60;;;21.50;69.60;;;;;;5091539;28;20052;-48
2021/08/17 07:22:59;;;;;;;5.93;2.58;;;21.50;69.60;;;;;;5093136;28;20127;-48
2021/08/17 07:25:25;;;;;;;4.78;2.75;;;21.40;69.50;;;;;;5093647;28;20043;-49
2021/08/17 07:27:51;;;;;;;7.07;3.13;;;21.40;69.50;;;;;;5093660;28;20055;-46
2021/08/17 07:30:17;;;;;;;7.07;3.00;;;21.50;69.60;;;;;;5093122;28;20044;-47
2021/08/17 07:32:45;;;;;;;6.03;2.88;;;21.50;69.60;;;;;;5092766;28;20048;-46
2021/08/17 07:35:13;;;;;;;6.15;2.65;;;21.50;69.60;;;;;;5092962;28;20048;-45
2021/08/17 07:37:39;;;;;;;3.88;2.35;;;21.50;69.70;;;;;;5092706;28;20048;-49
2021/08/17 07:40:06;;;;;;;4.38;2.17;;;21.50;69.70;;;;;;5093106;28;20051;-61
2021/08/17 07:42:34;;;;;;;9.77;3.97;;;21.50;69.80;;;;;;5092456;28;20056;-62
2021/08/17 07:45:00;;;;;;;6.22;2.90;;;21.50;68.90;;;;;;5092992;28;20039;-62
2021/08/17 07:47:26;;;;;;;5.63;3.00;;;21.40;68.70;;;;;;5093391;28;20043;-63
2021/08/17 07:49:53;;;;;;;6.53;2.70;;;21.40;68.90;;;;;;5093252;28;20071;-62
2021/08/17 07:52:19;;;;;;;5.95;2.78;;;21.40;69.00;;;;;;5091931;28;20477;-63
2021/08/17 07:54:45;;;;;;;5.47;2.65;;;21.40;69.10;;;;;;5092714;28;20461;-60
2021/08/17 07:57:10;;;;;;;4.82;2.83;;;21.40;69.20;;;;;;5092714;28;20044;-63
2021/08/17 07:59:36;;;;;;;5.15;3.03;;;21.50;69.30;;;;;;5092723;28;20075;-63
2021/08/17 08:02:02;;;;;;;4.57;2.83;;;21.50;70.10;;;;;;5092758;28;20070;-63
2021/08/17 08:04:28;;;;;;;6.05;2.97;;;21.50;69.50;;;;;;5091678;28;20050;-61
2021/08/17 08:06:54;;;;;;;5.60;3.10;;;21.50;69.50;;;;;;5092467;28;20126;-63
2021/08/17 08:09:19;;;;;;;3.67;2.30;;;21.50;69.60;;;;;;5092750;28;20456;-60
2021/08/17 08:11:45;;;;;;;5.25;2.63;;;21.50;69.00;;;;;;5092541;28;20055;-62
2021/08/17 08:14:11;;;;;;;4.15;2.60;;;21.50;69.70;;;;;;5092265;28;20048;-62
2021/08/17 08:16:37;;;;;;;7.38;2.97;;;21.50;69.70;;;;;;5092482;28;20047;-63
2021/08/17 08:19:04;;;;;;;4.65;2.63;;;21.50;69.80;;;;;;5092560;28;20044;-62
2021/08/17 08:21:32;;;;;;;3.85;2.40;;;21.50;69.80;;;;;;5092484;28;20047;-63
2021/08/17 08:23:58;;;;;;;4.95;2.60;;;21.50;69.80;;;;;;5091504;28;20054;-61
2021/08/17 08:26:24;;;;;;;5.15;2.65;;;21.50;69.90;;;;;;5092419;28;20141;-62
2021/08/17 08:28:50;;;;;;;3.83;2.35;;;21.60;70.00;;;;;;5091378;28;20519;-61
2021/08/17 08:31:16;;;;;;;4.13;2.25;;;21.50;69.90;;;;;;5092207;28;20044;-64
2021/08/17 08:33:41;;;;;;;4.35;2.75;;;21.50;70.00;;;;;;5092552;28;20059;-60
2021/08/17 08:36:09;;;;;;;4.60;2.35;;;21.60;70.00;;;;;;5091847;28;20063;-63
2021/08/17 08:38:35;;;;;;;5.32;2.63;;;21.60;70.00;;;;;;5091230;28;20432;-63
2021/08/17 08:41:02;;;;;;;4.13;2.45;;;21.60;70.00;;;;;;5092223;28;20060;-63
2021/08/17 08:43:27;;;;;;;3.92;2.25;;;21.60;70.10;;;;;;5091881;28;20078;-63
2021/08/17 08:45:53;;;;;;;3.90;2.33;;;21.60;70.00;;;;;;5092217;28;20047;-63
2021/08/17 08:48:20;;;;;;;5.30;3.05;;;21.60;70.10;;;;;;5091690;28;20409;-60
2021/08/17 08:50:47;;;;;;;4.78;2.40;;;21.60;70.10;;;;;;5091963;28;20143;-64
2021/08/17 08:53:13;;;;;;;3.90;2.40;;;21.60;70.10;;;;;;5091893;28;20055;-63
2021/08/17 08:55:39;;;;;;;4.85;2.50;;;21.60;70.10;;;;;;5091616;28;20047;-64
2021/08/17 08:58:05;;;;;;;4.03;2.70;;;21.60;70.10;;;;;;5092068;28;20048;-59
2021/08/17 09:00:31;;;;;;;3.28;2.13;;;21.60;70.10;;;;;;5091836;28;20051;-63
2021/08/17 09:02:57;;;;;;;3.85;2.30;;;21.70;70.20;;;;;;5092301;28;20044;-64
2021/08/17 09:05:23;;;;;;;5.40;2.50;;;21.60;70.20;;;;;;5092067;28;20056;-64
2021/08/17 09:07:50;;;;;;;2.80;2.20;;;21.60;70.10;;;;;;5092093;28;20071;-63
2021/08/17 09:10:17;;;;;;;3.63;2.25;;;21.60;70.10;;;;;;5091035;28;20192;-63
2021/08/17 09:12:46;;;;;;;4.03;2.22;;;21.70;70.20;;;;;;5091809;28;20399;-63
2021/08/17 09:15:19;;;;;;;3.42;2.35;;;21.60;70.20;;;;;;5091955;28;20510;-62
2021/08/17 09:18:06;;;;;;;3.65;2.42;;;21.60;70.10;;;;;;5095722;28;20044;-61
2021/08/17 09:20:40;;;;;;;3.42;2.05;;;21.70;70.20;;;;;;5095650;28;20378;-61
2021/08/17 09:23:21;;;;;;;3.15;2.50;;;21.60;70.20;;;;;;5095974;28;20395;-64
2021/08/17 09:25:47;;;;;;;3.33;2.33;;;21.70;70.20;;;;;;5095575;28;20044;-64
2021/08/17 09:28:34;;;;;;;10.48;5.25;;;21.60;70.20;;;;;;5093505;28;20556;-57
2021/08/17 09:31:03;;;;;;;7.75;4.15;;;21.70;69.80;;;;;;5075420;28;20044;-57
2021/08/17 09:33:41;;;;;;;10.23;3.90;;;21.60;69.90;;;;;;5075450;28;20060;-56
2021/08/17 09:36:08;;;;;;;11.50;4.40;;;21.70;69.80;;;;;;5075489;28;20056;-57
2021/08/17 09:38:34;;;;;;;6.68;3.83;;;21.60;69.80;;;;;;5075266;28;20056;-58
2021/08/17 09:41:17;;;;;;;8.05;3.97;;;21.70;69.80;;;;;;5094107;28;20077;-58
2021/08/17 09:43:57;;;;;;;7.35;3.72;;;21.70;69.80;;;;;;5094802;28;20496;-58
2021/08/17 09:46:34;;;;;;;6.10;3.65;;;21.70;69.90;;;;;;5093892;28;20040;-58
2021/08/17 09:49:26;;;;;;;4.63;3.38;;;21.70;69.90;;;;;;5093953;28;20055;-58
2021/08/17 09:51:58;;;;;;;6.90;3.17;;;21.60;69.80;;;;;;5094123;28;20579;-58
2021/08/17 09:54:26;;;;;;;6.28;3.60;;;21.70;69.90;;;;;;5094994;28;20055;-57
2021/08/17 09:57:01;;;;;;;5.32;3.38;;;21.70;69.90;;;;;;5094748;28;20048;-58
2021/08/17 09:59:29;;;;;;;7.35;3.60;;;21.70;70.00;;;;;;5094899;28;20510;-57
2021/08/17 10:01:56;;;;;;;6.28;3.95;;;21.70;70.00;;;;;;5094725;28;20492;-57
2021/08/17 10:04:22;;;;;;;6.47;3.45;;;21.70;70.00;;;;;;5095220;28;20098;-58
2021/08/17 10:06:55;;;;;;;5.70;3.63;;;21.70;70.00;;;;;;5094656;28;20511;-58
2021/08/17 10:09:23;;;;;;;6.15;3.80;;;21.70;70.00;;;;;;5095069;28;20086;-59
2021/08/17 10:11:48;;;;;;;5.50;3.45;;;21.70;70.10;;;;;;5094650;28;20051;-58
2021/08/17 10:14:15;;;;;;;6.75;3.40;;;21.80;70.10;;;;;;5093353;28;20043;-59
2021/08/17 10:16:42;;;;;;;4.72;3.20;;;21.70;70.10;;;;;;5094095;28;20404;-57
2021/08/17 10:19:10;;;;;;;5.07;3.42;;;21.70;70.10;;;;;;5094513;28;20036;-58
2021/08/17 10:21:39;;;;;;;6.38;3.88;;;21.70;70.10;;;;;;5093938;28;20074;-57
2021/08/17 10:24:26;;;;;;;6.07;3.30;;;21.70;70.10;;;;;;5094436;28;20051;-58
2021/08/17 10:27:23;;;;;;;5.53;3.50;;;21.70;70.10;;;;;;5094118;28;20048;-58
2021/08/17 10:30:10;;;;;;;5.22;3.25;;;21.80;70.20;;;;;;5093640;28;20048;-56
2021/08/17 10:32:42;;;;;;;6.20;3.55;;;21.80;70.20;;;;;;5094309;28;20037;-58
2021/08/17 10:35:30;;;;;;;4.65;3.42;;;21.70;70.10;;;;;;5094467;28;20048;-57
2021/08/17 10:38:12;;;;;;;3.97;2.80;;;21.80;70.20;;;;;;5087566;28;20045;-56
2021/08/17 10:40:52;;;;;;;6.57;3.08;;;21.80;70.20;;;;;;5073190;28;20129;-57
2021/08/17 10:43:19;;;;;;;5.50;3.70;;;21.80;70.20;;;;;;5088541;28;20052;-57
2021/08/17 10:45:56;;;;;;;5.75;2.90;;;21.80;70.30;;;;;;5091933;28;20115;-56
2021/08/17 10:51:38;;;;;;;4.10;2.78;;;21.80;70.30;;;;;;5091958;28;20809;-57
2021/08/17 10:54:04;;;;;;;4.97;3.20;;;21.80;70.30;;;;;;5092038;28;20060;-56
2021/08/17 10:56:31;;;;;;;3.40;2.78;;;21.80;70.30;;;;;;5093262;28;20046;-57
2021/08/17 10:58:58;;;;;;;5.38;3.35;;;21.80;70.30;;;;;;5092582;28;20101;-56
2021/08/17 11:01:30;;;;;;;4.88;3.20;;;21.80;70.30;;;;;;5092115;28;20046;-56
2021/08/17 11:04:08;;;;;;;4.80;3.33;;;21.80;70.30;;;;;;5092525;28;20143;-56
2021/08/17 11:06:37;;;;;;;4.70;3.20;;;21.90;70.30;;;;;;5092534;28;20051;-57
2021/08/17 11:09:28;;;;;;;4.28;3.22;;;21.80;70.30;;;;;;5093197;28;20409;-56
2021/08/17 11:11:59;;;;;;;4.38;3.38;;;21.90;70.30;;;;;;5092201;28;20488;-57
2021/08/17 11:14:27;;;;;;;5.38;3.70;;;21.90;70.40;;;;;;5092456;28;20135;-58
2021/08/17 11:17:12;;;;;;;5.15;3.25;;;21.90;70.30;;;;;;5092831;28;20500;-57
2021/08/17 11:19:45;;;;;;;4.85;2.88;;;21.90;70.30;;;;;;5093055;28;20449;-56
2021/08/17 11:22:14;;;;;;;4.85;2.75;;;21.90;70.30;;;;;;5091325;28;20448;-57
2021/08/17 11:24:46;;;;;;;3.42;2.70;;;21.90;70.30;;;;;;5092664;28;20408;-57
2021/08/17 11:27:15;;;;;;;4.55;2.63;;;21.90;70.30;;;;;;5092553;28;20055;-57
2021/08/17 11:29:40;;;;;;;4.20;2.90;;;21.90;70.30;;;;;;5092229;28;20044;-56
2021/08/17 11:32:09;;;;;;;4.97;3.08;;;21.90;70.30;;;;;;5091669;28;20062;-57
2021/08/17 11:34:40;;;;;;;3.70;2.63;;;21.90;70.30;;;;;;5092498;28;20068;-56
2021/08/17 11:37:11;;;;;;;3.97;2.67;;;21.90;70.20;;;;;;5091571;28;20121;-57
2021/08/17 11:39:49;;;;;;;4.00;2.60;;;21.90;70.20;;;;;;5092340;28;20556;-56
2021/08/17 11:42:19;;;;;;;4.85;2.70;;;21.90;70.20;;;;;;5091995;28;20052;-56
2021/08/17 11:44:52;;;;;;;4.13;2.92;;;21.90;70.20;;;;;;5091580;28;20073;-57
2021/08/17 11:47:20;;;;;;;5.40;2.97;;;21.90;70.20;;;;;;5091849;28;20446;-56
2021/08/17 11:49:48;;;;;;;5.97;2.70;;;21.90;70.20;;;;;;5091858;28;20047;-54
2021/08/17 11:52:21;;;;;;;4.25;2.63;;;21.90;70.20;;;;;;5091082;28;20051;-56
2021/08/17 11:54:51;;;;;;;3.22;2.58;;;22.00;70.30;;;;;;5091845;28;20052;-55
2021/08/17 11:57:24;;;;;;;3.60;2.53;;;21.90;70.20;;;;;;5090554;28;20071;-57
2021/08/17 11:59:51;;;;;;;3.97;2.85;;;22.00;70.30;;;;;;5092292;28;20476;-58
2021/08/17 12:02:24;;;;;;;4.13;2.70;;;22.00;70.30;;;;;;5091827;28;20083;-58
2021/08/17 12:05:00;;;;;;;4.32;2.75;;;22.00;70.30;;;;;;5091080;28;20043;-58
2021/08/17 12:07:28;;;;;;;3.47;2.60;;;22.00;70.30;;;;;;5092410;28;20044;-57
2021/08/17 12:09:55;;;;;;;3.95;3.03;;;22.00;70.30;;;;;;5092173;28;20400;-57
2021/08/17 12:13:00;;;;;;;3.95;2.30;;;22.00;70.30;;;;;;5092650;28;20050;-57
2021/08/17 12:15:48;;;;;;;2.80;2.50;;;22.00;70.20;;;;;;5092575;28;20083;-57
2021/08/17 12:18:17;;;;;;;4.47;3.05;;;22.00;70.20;;;;;;5092318;28;20134;-57
2021/08/17 12:20:56;;;;;;;3.30;2.35;;;22.00;70.30;;;;;;5087899;28;20145;-56
2021/08/17 12:23:21;;;;;;;3.65;2.45;;;22.00;70.20;;;;;;5078063;28;20519;-56
2021/08/17 12:25:50;;;;;;;4.05;2.85;;;22.00;70.20;;;;;;5091804;28;20044;-57
2021/08/17 12:28:35;;;;;;;3.85;2.58;;;22.00;70.30;;;;;;5091278;28;20403;-57
2021/08/17 12:31:14;;;;;;;4.13;2.43;;;22.00;70.20;;;;;;5091054;28;20080;-56
2021/08/17 12:33:54;;;;;;;4.03;2.35;;;22.00;70.20;;;;;;5091520;28;20503;-57
2021/08/17 12:36:49;;;;;;;3.78;2.60;;;22.00;70.30;;;;;;5090401;28;20444;-56
2021/08/17 12:39:30;;;;;;;2.90;2.33;;;22.00;70.30;;;;;;5091638;28;20048;-56
2021/08/17 12:42:03;;;;;;;4.22;2.67;;;22.00;70.20;;;;;;5090577;28;20492;-56
2021/08/17 12:44:29;;;;;;;4.40;2.60;;;22.00;70.30;;;;;;5091160;28;20395;-58
2021/08/17 12:47:01;;;;;;;3.63;2.47;;;22.00;70.30;;;;;;5091382;28;20135;-58
2021/08/17 12:49:44;;;;;;;3.35;2.60;;;22.00;70.30;;;;;;5090887;28;20048;-57
2021/08/17 12:52:22;;;;;;;3.53;2.42;;;22.00;70.20;;;;;;5089115;28;20051;-58
2021/08/17 12:54:49;;;;;;;3.20;2.25;;;22.00;70.20;;;;;;5090970;28;20118;-56